»·PEaware :: SWA2034 KLAX-KPHX

SWA2034 :: KLAX-KPHX

FLIGHT INFORMATION

Flight Status: Arrived
Operator:
Southwest Airlines
More flights by this operator :: More flights under this callsign
Pilot: Tim M. (868)
Aircraft: BOEING 737-700
(B737)
More flights by this aircraft type
Origin: KLAX Los Angeles Intl
United States
Destination: KPHX Phoenix Sky Harbor Intl
United States
More flights between these airports :: More routes between these airports
Route: +DOTSS2 CNERY BLH HYDRR1
File this flight plan on PilotEdge
Remarks:
Altitude:
(Current/Filed)
39,000ft
Speed:
(Current/Filed)
447kts
Departed: 18-Jul-20 01:17 PM
Arrived: 18-Jul-20 02:23 PM
Distance/Time
Traveled:
322nm/1:06
Distance/Time
To Go:
Arrived

Flight Plot

Page will automatically refresh every two minutes.

Flight plan parsing failed; only flown route is shown


Map Options




Map Legend


Flown Route
Filed Route
Departure Airport
Arrival Airport
Navaid (VOR, NDB)
Fix

Horizontal Profiles

Position Reports

Time Latitude Longitude Heading Altitude Ground
Speed
18-Jul-20 12:36 33.947037 -118.401916 93 134ft 0kts
18-Jul-20 12:37 33.947037 -118.401916 93 134ft 0kts
18-Jul-20 12:38 33.947037 -118.401916 93 134ft 0kts
18-Jul-20 12:39 33.947037 -118.401916 93 134ft 0kts
18-Jul-20 12:40 33.947037 -118.401916 93 134ft 0kts
18-Jul-20 12:41 33.947037 -118.401916 93 134ft 0kts
18-Jul-20 12:42 33.947037 -118.401916 93 134ft 0kts
18-Jul-20 12:43 33.947037 -118.401916 93 134ft 0kts
18-Jul-20 12:44 33.947037 -118.401916 93 134ft 0kts
18-Jul-20 12:45 33.947037 -118.401916 93 134ft 0kts
18-Jul-20 12:46 33.947037 -118.401916 93 134ft 0kts
18-Jul-20 12:47 33.947037 -118.401916 93 134ft 0kts
18-Jul-20 12:48 33.947037 -118.401916 93 134ft 0kts
18-Jul-20 12:49 33.947037 -118.401916 93 134ft 0kts
18-Jul-20 12:50 33.947037 -118.401916 93 134ft 0kts
18-Jul-20 12:51 33.947037 -118.401916 93 134ft 0kts
18-Jul-20 12:52 33.947037 -118.401916 93 134ft 0kts
18-Jul-20 12:53 33.947037 -118.401916 93 134ft 0kts
18-Jul-20 12:54 33.947037 -118.401916 93 134ft 0kts
18-Jul-20 12:55 33.947037 -118.401916 93 134ft 0kts
18-Jul-20 12:56 33.947037 -118.401916 93 134ft 0kts
18-Jul-20 12:57 33.947037 -118.401916 93 134ft 0kts
18-Jul-20 12:58 33.947037 -118.401916 93 134ft 0kts
18-Jul-20 12:59 33.947037 -118.401916 93 134ft 0kts
18-Jul-20 13:00 33.947037 -118.401916 93 134ft 0kts
18-Jul-20 13:01 33.947037 -118.401916 93 134ft 0kts
18-Jul-20 13:02 33.947037 -118.401916 93 134ft 0kts
18-Jul-20 13:03 33.947037 -118.401916 93 134ft 0kts
18-Jul-20 13:04 33.947037 -118.401916 93 134ft 0kts
18-Jul-20 13:05 33.947037 -118.401916 93 134ft 0kts
18-Jul-20 13:06 33.947037 -118.401916 93 134ft 0kts
18-Jul-20 13:07 33.947037 -118.401916 93 134ft 0kts
18-Jul-20 13:08 33.947103 -118.402564 89 134ft 2kts
18-Jul-20 13:09 33.946836 -118.402618 352 134ft 0kts
18-Jul-20 13:10 33.946837 -118.402618 352 134ft 0kts
18-Jul-20 13:11 33.946838 -118.402619 352 134ft 0kts
18-Jul-20 13:12 33.946840 -118.402619 352 134ft 0kts
18-Jul-20 13:13 33.948187 -118.402884 342 134ft 7kts
18-Jul-20 13:14 33.949103 -118.401484 84 134ft 6kts
18-Jul-20 13:15 33.950189 -118.401990 262 134ft 16kts
18-Jul-20 13:16 33.946602 -118.435527 262 979ft 139kts
18-Jul-20 13:17 33.942761 -118.484803 268 3149ft 156kts
18-Jul-20 13:18 33.939409 -118.548794 263 4377ft 230kts
18-Jul-20 13:19 33.921493 -118.631763 223 6606ft 279kts
18-Jul-20 13:20 33.846061 -118.637666 159 9829ft 292kts
18-Jul-20 13:21 33.772510 -118.582011 146 11961ft 337kts
18-Jul-20 13:22 33.698135 -118.512857 125 13282ft 342kts
18-Jul-20 13:23 33.663811 -118.407645 110 16601ft 356kts
18-Jul-20 13:24 33.643782 -118.289455 92 19652ft 376kts
18-Jul-20 13:25 33.644573 -118.163875 90 22235ft 397kts
18-Jul-20 13:26 33.644832 -118.030996 91 23053ft 405kts
18-Jul-20 13:27 33.644438 -117.896426 91 23051ft 405kts
18-Jul-20 13:28 33.635610 -117.762305 105 23300ft 407kts
18-Jul-20 13:29 33.603505 -117.630780 108 25751ft 419kts
18-Jul-20 13:30 33.570113 -117.494247 108 27740ft 433kts
18-Jul-20 13:31 33.535302 -117.354846 107 29012ft 433kts
18-Jul-20 13:32 33.505134 -117.218845 102 29423ft 417kts
18-Jul-20 13:33 33.501382 -117.073263 90 30172ft 457kts
18-Jul-20 13:35 33.500094 -116.919407 92 31543ft 467kts
18-Jul-20 13:36 33.498167 -116.763162 92 33026ft 469kts
18-Jul-20 13:37 33.495646 -116.606960 93 34655ft 467kts
18-Jul-20 13:38 33.492679 -116.451525 93 36136ft 464kts
18-Jul-20 13:39 33.490559 -116.297197 92 37436ft 462kts
18-Jul-20 13:40 33.487961 -116.143605 93 38603ft 460kts
18-Jul-20 13:41 33.499439 -115.990742 75 38862ft 464kts
18-Jul-20 13:42 33.542007 -115.844097 71 38865ft 465kts
18-Jul-20 13:43 33.584558 -115.697632 72 38866ft 465kts
18-Jul-20 13:44 33.615763 -115.548565 88 38866ft 461kts
18-Jul-20 13:45 33.613380 -115.394850 93 38871ft 460kts
18-Jul-20 13:46 33.609152 -115.241435 93 38877ft 461kts
18-Jul-20 13:47 33.605613 -115.087563 93 38883ft 461kts
18-Jul-20 13:48 33.601288 -114.933923 93 38620ft 464kts
18-Jul-20 13:49 33.596212 -114.779625 97 35894ft 463kts
18-Jul-20 13:49 33.575520 -114.654242 106 33733ft 454kts
18-Jul-20 13:51 33.542075 -114.485238 105 31172ft 439kts
18-Jul-20 13:52 33.515092 -114.344952 105 29057ft 426kts
18-Jul-20 13:52 33.492607 -114.231636 105 27281ft 413kts
18-Jul-20 13:54 33.462086 -114.078592 104 25117ft 390kts
18-Jul-20 13:54 33.441328 -113.975079 104 24114ft 378kts
18-Jul-20 13:56 33.412429 -113.831537 104 22959ft 375kts
18-Jul-20 13:56 33.392471 -113.730953 104 22133ft 370kts
18-Jul-20 13:57 33.368229 -113.612060 104 21092ft 364kts
18-Jul-20 13:58 33.344390 -113.495684 104 20126ft 358kts
18-Jul-20 13:59 33.323190 -113.379886 101 19187ft 353kts
18-Jul-20 14:00 33.303565 -113.265807 102 18265ft 347kts
18-Jul-20 14:01 33.286278 -113.153044 99 17443ft 344kts
18-Jul-20 14:02 33.274368 -113.040372 89 16553ft 340kts
18-Jul-20 14:03 33.277953 -112.927685 88 15660ft 337kts
18-Jul-20 14:04 33.280655 -112.817599 87 14785ft 318kts
18-Jul-20 14:05 33.290518 -112.714282 83 13962ft 311kts
18-Jul-20 14:06 33.300440 -112.612145 83 13151ft 307kts
18-Jul-20 14:07 33.309687 -112.511263 83 12350ft 304kts
18-Jul-20 14:08 33.318750 -112.411414 83 11556ft 302kts
18-Jul-20 14:09 33.327172 -112.320091 83 10831ft 301kts
18-Jul-20 14:10 33.336203 -112.220766 83 10030ft 292kts
18-Jul-20 14:11 33.344563 -112.127151 83 9277ft 271kts
18-Jul-20 14:12 33.347269 -112.041054 91 8356ft 253kts
18-Jul-20 14:13 33.345944 -111.958262 91 7292ft 247kts
18-Jul-20 14:14 33.346116 -111.877026 89 6192ft 243kts
18-Jul-20 14:15 33.348144 -111.797135 76 5030ft 239kts
18-Jul-20 14:16 33.403808 -111.773503 345 4072ft 221kts
18-Jul-20 14:17 33.432448 -111.829006 269 3158ft 195kts
18-Jul-20 14:18 33.431409 -111.884511 266 2826ft 134kts
18-Jul-20 14:19 33.431000 -111.929524 268 2264ft 137kts
18-Jul-20 14:20 33.431010 -111.973960 269 1559ft 137kts
18-Jul-20 14:21 33.431038 -112.014132 268 1143ft 62kts
18-Jul-20 14:22 33.432152 -112.019433 92 1143ft 8kts
18-Jul-20 14:23 33.432827 -112.016846 91 1143ft 9kts
18-Jul-20 14:24 33.432825 -112.013972 89 1143ft 7kts
18-Jul-20 14:25 33.432836 -112.011296 90 1143ft 9kts
18-Jul-20 14:26 33.432832 -112.009064 90 1143ft 9kts
18-Jul-20 14:27 33.432827 -112.005758 91 1143ft 9kts
18-Jul-20 14:28 33.432835 -112.001509 90 1143ft 14kts
18-Jul-20 14:29 33.432820 -111.996697 91 1143ft 12kts
18-Jul-20 14:30 33.433389 -111.994614 33 1143ft 0kts
18-Jul-20 14:31 33.433389 -111.994614 33 1143ft 0kts
18-Jul-20 14:32 33.433389 -111.994614 33 1143ft 0kts

Navigation Log

Ident Type
Flight plan parsing failed, navigation log unavailable